Latest Weather Observations for Adele Island

IDW60801

Issued at 6:32 pm WST Wednesday 2 September 2015 (issued every 30 minutes, with the page automatically refreshed every 10 minutes)

About weather observations | Map of weather stations | Latest weather observations for WA | Other Formats
Station Details ID: 200735 Name: ADELE ISLAND Lat: -15.51 Lon: 123.16 Height: 4.6 m
Data from the previous 72 hours. | See also: Recent months at Adele Island
Date/Time
WST
Temp
°C
App
Temp
°C
Dew
Point
Rel
Hum
%
Delta-T
°C
Wind Press
QNH
hPa
Press
MSL
hPa
Rain
since 9 am
mm
Dir
 
Spd
km/h
Gust
km/h
Spd
kts
Gust
kts
02/06:30pm 24.3 - - - - SW 20 24 11 13 1015.5 1015.4 -
02/06:00pm 24.1 - - - - WSW 19 24 10 13 1015.1 1015.0 -
02/05:30pm 24.6 - - - - WSW 19 22 10 12 1014.9 1014.8 -
02/05:00pm 24.8 - - - - WSW 17 22 9 12 1014.8 1014.7 -
02/04:30pm 25.3 - - - - WSW 17 22 9 12 1014.7 1014.6 -
02/04:00pm 25.4 - - - - WSW 19 24 10 13 1014.6 1014.5 -
02/03:30pm 25.8 - - - - WSW 17 22 9 12 1014.5 1014.4 -
02/03:00pm 25.1 - - - - W 17 20 9 11 1014.5 1014.4 -
02/02:30pm 26.4 - - - - WSW 15 20 8 11 1014.5 1014.4 -
02/02:00pm 25.7 - - - - W 15 19 8 10 1014.7 1014.6 -
02/01:30pm 25.7 - - - - WSW 15 20 8 11 1015.0 1014.9 -
02/01:00pm 25.4 - - - - W 13 17 7 9 1015.4 1015.3 -
02/12:30pm 25.7 - - - - W 13 19 7 10 1015.7 1015.6 -
02/12:00pm 25.3 - - - - W 15 19 8 10 1016.0 1015.9 -
02/11:30am 26.4 - - - - SW 15 20 8 11 1016.4 1016.3 -
02/11:00am 25.3 - - - - WSW 13 19 7 10 1016.8 1016.7 -
02/10:30am 25.3 - - - - WSW 13 17 7 9 1017.1 1017.0 -
02/10:00am 25.6 - - - - WSW 11 19 6 10 1017.3 1017.2 -
02/09:30am 26.0 - - - - WSW 6 11 3 6 1017.4 1017.3 -
02/09:00am 25.5 - - - - WSW 6 9 3 5 1017.5 1017.4 -
02/08:30am 25.3 - - - - W 4 9 2 5 1017.2 1017.1 -
02/08:00am 24.8 - - - - W 6 11 3 6 1016.9 1016.8 -
02/07:30am 24.6 - - - - SSW 7 9 4 5 1016.7 1016.6 -
02/07:00am 23.7 - - - - SSW 4 6 2 3 1016.2 1016.1 -
02/06:30am 23.5 - - - - SSW 9 11 5 6 1016.0 1015.9 -
02/06:00am 23.4 - - - - SSW 11 13 6 7 1015.6 1015.5 -
02/05:30am 23.4 - - - - SSW 11 13 6 7 1015.2 1015.1 -
02/05:00am 23.8 - - - - S 11 13 6 7 1015.0 1014.9 -
02/04:30am 23.5 - - - - SSW 11 13 6 7 1014.8 1014.7 -
02/04:00am 23.9 - - - - SSW 13 15 7 8 1014.8 1014.7 -
02/03:30am 24.0 - - - - SW 13 15 7 8 1015.0 1014.9 -
02/03:00am 24.0 - - - - SW 13 17 7 9 1015.1 1015.0 -
02/02:30am 23.8 - - - - SW 15 17 8 9 1015.0 1014.9 -
02/02:00am 24.0 - - - - SW 15 19 8 10 1015.0 1014.9 -
02/01:30am 23.7 - - - - SW 13 17 7 9 1015.1 1015.0 -
02/01:00am 24.3 - - - - SW 15 19 8 10 1015.3 1015.2 -
02/12:30am 23.9 - - - - SW 15 19 8 10 1015.4 1015.3 -
02/12:00am 24.0 - - - - SW 15 19 8 10 1015.6 1015.5 -
 
Date/Time
WST
Temp
°C
App
Temp
°C
Dew
Point
Rel
Hum
%
Delta-T
°C
Wind Press
QNH
hPa
Press
MSL
hPa
Rain
since 9 am
mm
Dir
 
Spd
km/h
Gust
km/h
Spd
kts
Gust
kts
01/11:30pm 24.3 - - - - SW 15 20 8 11 1015.9 1015.8 -
01/11:00pm 24.5 - - - - SW 17 20 9 11 1016.0 1015.9 -
01/10:30pm 24.1 - - - - WSW 17 20 9 11 1015.9 1015.8 -
01/10:00pm 23.9 - - - - WSW 17 20 9 11 1015.8 1015.7 -
01/09:30pm 23.7 - - - - WSW 15 17 8 9 1016.0 1015.9 -
01/09:00pm 24.3 - - - - WSW 15 20 8 11 1016.0 1015.9 -
01/08:30pm 24.5 - - - - WSW 17 20 9 11 1015.8 1015.7 -
01/08:00pm 24.1 - - - - W 15 19 8 10 1015.5 1015.4 -
01/07:30pm 24.4 - - - - W 15 20 8 11 1015.2 1015.1 -
01/07:00pm 24.5 - - - - W 17 20 9 11 1014.8 1014.7 -
01/06:30pm 24.4 - - - - WSW 15 19 8 10 1014.4 1014.3 -
01/06:00pm 24.7 - - - - WSW 17 20 9 11 1014.1 1014.0 -
01/05:30pm 24.8 - - - - WSW 15 22 8 12 1013.9 1013.8 -
01/05:00pm 25.3 - - - - W 15 20 8 11 1013.7 1013.6 -
01/04:30pm 26.0 - - - - WSW 15 19 8 10 1013.6 1013.5 -
01/04:00pm 26.1 - - - - WSW 15 20 8 11 1013.4 1013.3 -
01/03:30pm 25.6 - - - - W 17 20 9 11 1013.5 1013.4 -
01/03:00pm 26.5 - - - - WSW 17 20 9 11 1013.6 1013.5 -
01/02:30pm 26.4 - - - - WNW 15 20 8 11 1013.7 1013.6 -
01/02:00pm 27.2 - - - - WNW 13 17 7 9 1013.7 1013.6 -
01/01:30pm 25.8 - - - - WNW 13 17 7 9 1014.0 1013.9 -
01/01:00pm 26.1 - - - - W 15 20 8 11 1014.4 1014.3 -
01/12:30pm 26.9 - - - - WNW 13 19 7 10 1014.6 1014.5 -
01/12:00pm 25.6 - - - - W 15 19 8 10 1014.9 1014.8 -
01/11:30am 26.4 - - - - W 15 19 8 10 1015.3 1015.2 -
01/11:00am 26.0 - - - - WSW 15 20 8 11 1015.7 1015.6 -
01/10:30am 26.4 - - - - WSW 17 20 9 11 1016.1 1016.0 -
01/10:00am 25.8 - - - - SW 17 22 9 12 1016.3 1016.2 -
01/09:30am 25.4 - - - - SW 17 22 9 12 1016.4 1016.3 -
01/09:00am 25.7 - - - - SW 6 11 3 6 1016.3 1016.2 -
01/08:30am 25.8 - - - - WSW 15 19 8 10 1016.2 1016.1 -
01/08:00am 25.3 - - - - WSW 13 17 7 9 1015.8 1015.7 -
01/07:30am 24.7 - - - - W 13 19 7 10 1015.6 1015.5 -
01/07:00am 24.3 - - - - W 13 15 7 8 1015.5 1015.4 -
01/06:30am 23.8 - - - - SW 15 19 8 10 1015.1 1015.0 -
01/06:00am 23.7 - - - - WSW 17 22 9 12 1014.8 1014.7 -
01/05:30am 23.7 - - - - WSW 19 22 10 12 1014.5 1014.4 -
01/05:00am 23.9 - - - - SW 17 20 9 11 1014.1 1014.0 -
01/04:30am 23.9 - - - - SW 19 22 10 12 1013.9 1013.8 -
01/04:00am 23.7 - - - - SW 19 22 10 12 1013.7 1013.6 -
01/03:30am 24.0 - - - - SW 20 26 11 14 1013.7 1013.6 -
01/03:00am 24.1 - - - - SW 20 26 11 14 1013.8 1013.7 -
01/02:30am 23.9 - - - - SW 17 22 9 12 1013.9 1013.8 -
01/02:00am 24.0 - - - - SW 17 22 9 12 1014.0 1013.9 -
01/01:30am 24.3 - - - - SSW 19 24 10 13 1014.1 1014.0 -
01/01:00am 24.3 - - - - SSW 20 24 11 13 1014.4 1014.3 -
01/12:30am 24.6 - - - - SW 20 24 11 13 1014.7 1014.6 -
01/12:00am 24.4 - - - - SW 19 24 10 13 1015.0 1014.9 -
 
Date/Time
WST
Temp
°C
App
Temp
°C
Dew
Point
Rel
Hum
%
Delta-T
°C
Wind Press
QNH
hPa
Press
MSL
hPa
Rain
since 9 am
mm
Dir
 
Spd
km/h
Gust
km/h
Spd
kts
Gust
kts
31/11:30pm 24.6 - - - - SSW 22 26 12 14 1015.3 1015.2 -
31/11:00pm 24.8 - - - - SSW 20 24 11 13 1015.6 1015.5 -
31/10:30pm 24.7 - - - - SSW 20 26 11 14 1015.7 1015.6 -
31/10:00pm 24.5 - - - - SSW 22 26 12 14 1015.7 1015.6 -
31/09:30pm 24.3 - - - - SW 20 26 11 14 1015.9 1015.8 -
31/09:00pm 24.2 - - - - SW 20 24 11 13 1015.9 1015.8 -
31/08:30pm 24.4 - - - - SW 20 24 11 13 1015.8 1015.7 -
31/08:00pm 24.3 - - - - SW 20 24 11 13 1015.6 1015.5 -
31/07:30pm 24.6 - - - - SW 20 28 11 15 1015.2 1015.1 -
31/07:00pm 24.6 - - - - SW 22 26 12 14 1015.0 1014.9 -
31/06:30pm 24.6 - - - - WSW 22 28 12 15 1014.8 1014.7 -
31/06:00pm 24.8 - - - - WSW 24 32 13 17 1014.6 1014.5 -
31/05:30pm 25.0 - - - - WSW 22 26 12 14 1014.6 1014.5 -
31/05:00pm 25.5 - - - - W 20 26 11 14 1014.5 1014.4 -
31/04:30pm 25.9 - - - - W 20 26 11 14 1014.4 1014.3 -
31/04:00pm 26.2 - - - - W 20 28 11 15 1014.3 1014.2 -
31/03:30pm 26.0 - - - - W 22 28 12 15 1014.2 1014.1 -
31/03:00pm 26.9 - - - - WSW 20 28 11 15 1014.2 1014.1 -
31/02:30pm 26.9 - - - - WSW 22 26 12 14 1014.5 1014.4 -
31/02:00pm 26.6 - - - - WSW 20 26 11 14 1014.8 1014.7 -
31/01:30pm 27.0 - - - - SW 20 26 11 14 1015.1 1015.0 -
31/01:00pm 27.2 - - - - WSW 20 26 11 14 1015.3 1015.2 -
31/12:30pm 27.2 - - - - WSW 19 24 10 13 1015.4 1015.3 -
31/12:00pm 26.5 - - - - WSW 20 24 11 13 1015.6 1015.5 -
31/11:30am 26.9 - - - - WSW 20 24 11 13 1016.0 1015.9 -
31/11:00am 26.4 - - - - SW 20 24 11 13 1016.4 1016.3 -
31/10:30am 26.4 - - - - SW 19 24 10 13 1016.8 1016.7 -
31/10:00am 26.6 - - - - SW 17 22 9 12 1017.1 1017.0 -
31/09:30am 26.2 - - - - SSW 17 20 9 11 1017.1 1017.0 -
31/09:00am 26.0 - - - - SW 17 20 9 11 1017.1 1017.0 -
31/08:30am 26.2 - - - - SSW 17 20 9 11 1016.8 1016.7 -
31/08:00am 25.6 - - - - SW 19 22 10 12 1016.6 1016.5 -
31/07:30am 25.4 - - - - S 17 20 9 11 1016.3 1016.2 -
31/07:00am 25.0 - - - - S 15 20 8 11 1016.1 1016.0 -
31/06:30am 24.4 - - - - S 17 22 9 12 1015.9 1015.8 -
31/06:00am 24.3 - - - - SSW 20 26 11 14 1015.5 1015.4 -
31/05:30am 24.0 - - - - S 19 24 10 13 1015.1 1015.0 -
31/05:00am 24.1 - - - - S 20 26 11 14 1014.9 1014.8 -
31/04:30am 24.2 - - - - S 22 30 12 16 1014.7 1014.6 -
31/04:00am 24.1 - - - - S 24 30 13 16 1014.7 1014.6 -
31/03:30am 24.1 - - - - S 24 32 13 17 1014.8 1014.7 -
31/03:00am 24.1 - - - - SSW 26 35 14 19 1014.8 1014.7 -
31/02:30am 24.3 - - - - SSW 30 35 16 19 1014.9 1014.8 -
31/02:00am 24.3 - - - - SSW 30 35 16 19 1015.1 1015.0 -
31/01:30am 24.3 - - - - SSW 30 35 16 19 1015.5 1015.4 -
31/01:00am 24.5 - - - - SSW 28 33 15 18 1015.7 1015.6 -
31/12:30am 24.5 - - - - SSW 26 33 14 18 1016.0 1015.9 -
31/12:00am 24.7 - - - - SSW 30 37 16 20 1016.3 1016.2 -
 
Date/Time
WST
Temp
°C
App
Temp
°C
Dew
Point
Rel
Hum
%
Delta-T
°C
Wind Press
QNH
hPa
Press
MSL
hPa
Rain
since 9 am
mm
Dir
 
Spd
km/h
Gust
km/h
Spd
kts
Gust
kts
30/11:30pm 24.7 - - - - SSW 30 35 16 19 1016.6 1016.5 -
30/11:00pm 24.7 - - - - SW 28 33 15 18 1016.6 1016.5 -
30/10:30pm 24.7 - - - - SW 28 33 15 18 1016.8 1016.7 -
30/10:00pm 24.7 - - - - SW 28 35 15 19 1016.8 1016.7 -
30/09:30pm 24.8 - - - - SW 26 33 14 18 1016.9 1016.8 -
30/09:00pm 24.7 - - - - SW 26 35 14 19 1016.9 1016.8 -
30/08:30pm 24.6 - - - - SW 28 33 15 18 1016.7 1016.6 -
30/08:00pm 24.6 - - - - SW 24 30 13 16 1016.6 1016.5 -
30/07:30pm 24.7 - - - - SW 24 30 13 16 1016.5 1016.4 -
30/07:00pm 24.6 - - - - SW 20 28 11 15 1016.3 1016.2 -

Other Formats:

Comma delimited format used in spreadsheet applications
http://www.bom.gov.au/fwo/IDW60801/IDW60801.94210.axf

JavaScript Object Notation format (JSON) in row-major order
http://www.bom.gov.au/fwo/IDW60801/IDW60801.94210.json